Weather History for KM40 - November, 2012

Change the Weather History Date:

Sunday, November 18, 2012

  Actual Average (KCBM) Record (KCBM)
Temperature  
Mean Temperature 50 °F -  
Max Temperature 69 °F 61 °F 75 °F (2001)
Min Temperature 30 °F 41 °F 19 °F (2014)
Degree Days  
Heating Degree Days 16    
Moisture  
Dew Point 31 °F    
Average Humidity 57    
Maximum Humidity 61    
Minimum Humidity 51    
Precipitation  
Precipitation 0.00 in - - ()
Sea Level Pressure  
Sea Level Pressure 30.36 in    
Wind  
Wind Speed 1 mph ()    
Max Wind Speed 8 mph    
Max Gust Speed -    
Visibility 5.1 miles    
Events      
Averages and records for this station are not official NWS values.
T = Trace of Precipitation, MM = Missing Value Source: Averaged Metar Reports

Daily Weather History Graph

Daily Weather History Graph

Search for Another Location

Airport or City:

Trip Planner

Search our weather history database for the weather conditions in past years. The results will help you decide how hot, cold, wet, or windy it might be!

Date:

Astronomy

Nov. 18, 2012 Rise Set
Actual Time 6:29 AM CST 4:48 PM CST
Civil Twilight 6:02 AM CST 5:15 PM CST
Nautical Twilight 5:32 AM CST 5:45 PM CST
Astronomical Twilight 5:02 AM CST 6:15 PM CST
Moon 10:59 AM CST (11/18) 10:04 PM CST (11/18)
Length of Visible Light 11h 12m
Length of Day
10h 19m
Waxing Crescent, 30% of the Moon is Illuminated
Nov 18
Waxing Crescent
Nov 20
First Quarter
Nov 28
Full
Dec 6
Last Quarter
Dec 13
New

Hourly Weather History & Observations

Time (CST) Temp. Dew Point Humidity Pressure Visibility Wind Dir Wind Speed Gust Speed Precip Events Conditions
12:15 AM 32.0 °F 19.4 °F 60% 30.38 in 4.0 mi North - - N/A   Haze
12:35 AM 33.8 °F 19.4 °F 56% 30.38 in 4.0 mi North - - N/A   Haze
12:55 AM 32.0 °F 19.4 °F 60% 30.38 in 4.0 mi Calm Calm - N/A   Haze
1:15 AM 32.0 °F 19.4 °F 60% 30.37 in 2.0 mi Calm Calm - N/A   Haze
1:35 AM 32.0 °F 19.4 °F 60% 30.37 in 3.0 mi North - - N/A   Haze
1:55 AM 32.0 °F 17.6 °F 55% 30.37 in 3.0 mi Calm Calm - N/A   Haze
2:15 AM 32.0 °F 17.6 °F 55% 30.38 in 3.0 mi Calm Calm - N/A   Haze
2:35 AM 32.0 °F 17.6 °F 55% 30.37 in 3.0 mi Calm Calm - N/A   Haze
2:55 AM 32.0 °F 17.6 °F 55% 30.37 in 4.0 mi Calm Calm - N/A   Haze
3:15 AM 32.0 °F 17.6 °F 55% 30.37 in 1.0 mi Calm Calm - N/A   Haze
3:35 AM 32.0 °F 17.6 °F 55% 30.37 in 2.0 mi Calm Calm - N/A   Haze
3:55 AM 32.0 °F 17.6 °F 55% 30.37 in 4.0 mi North - - N/A   Haze
4:15 AM 30.2 °F 17.6 °F 60% 30.38 in 2.0 mi North - - N/A   Haze
4:35 AM 30.2 °F 17.6 °F 60% 30.38 in 2.5 mi North - - N/A   Haze
4:55 AM 30.2 °F 17.6 °F 60% 30.39 in 4.0 mi North - - N/A   Haze
5:15 AM 30.2 °F 17.6 °F 60% 30.39 in 4.0 mi North - - N/A   Haze
5:35 AM 30.2 °F 15.8 °F 55% 30.40 in 2.0 mi North - - N/A   Haze
5:55 AM 30.2 °F 15.8 °F 55% 30.40 in 3.0 mi Calm Calm - N/A   Haze
6:15 AM 30.2 °F 15.8 °F 55% 30.40 in 2.5 mi North - - N/A   Haze
6:35 AM 30.2 °F 15.8 °F 55% 30.40 in 2.5 mi North - - N/A   Haze
6:55 AM 30.2 °F 17.6 °F 60% 30.41 in 2.0 mi North - - N/A   Haze
7:15 AM 32.0 °F 17.6 °F 55% 30.41 in 3.0 mi Calm Calm - N/A   Haze
7:35 AM 33.8 °F 21.2 °F 60% 30.41 in 2.5 mi Calm Calm - N/A   Haze
7:55 AM 37.4 °F 24.8 °F 60% 30.41 in 3.0 mi Calm Calm - N/A   Haze
8:15 AM 44.6 °F 30.2 °F 57% 30.41 in 4.0 mi Calm Calm - N/A   Haze
8:35 AM 48.2 °F 33.8 °F 58% 30.41 in 5.0 mi Calm Calm - N/A   Haze
8:55 AM 53.6 °F 37.4 °F 54% 30.42 in 5.0 mi Calm Calm - N/A   Haze
9:15 AM 55.4 °F 39.2 °F 54% 30.42 in 7.0 mi WNW 4.6 mph - N/A   Clear
9:35 AM 57.2 °F 41.0 °F 55% 30.42 in 7.0 mi WNW 4.6 mph - N/A   Clear
9:55 AM 60.8 °F 44.6 °F 55% 30.42 in 7.0 mi NW 5.8 mph - N/A   Clear
10:15 AM 62.6 °F 44.6 °F 52% 30.42 in 5.0 mi NW 8.1 mph - N/A   Haze
10:35 AM 62.6 °F 46.4 °F 55% 30.42 in 5.0 mi NNW 4.6 mph - N/A   Haze
10:55 AM 62.6 °F 46.4 °F 55% 30.41 in 5.0 mi Calm Calm - N/A   Haze
11:15 AM 64.4 °F 48.2 °F 56% 30.40 in 5.0 mi Calm Calm - N/A   Haze
11:35 AM 64.4 °F 48.2 °F 56% 30.39 in 5.0 mi WNW 5.8 mph - N/A   Haze
11:55 AM 66.2 °F 50.0 °F 56% 30.38 in 7.0 mi West 3.5 mph - N/A   Clear
12:15 PM 66.2 °F 50.0 °F 56% 30.36 in 5.0 mi NNW 4.6 mph - N/A   Haze
12:35 PM 66.2 °F 50.0 °F 56% 30.36 in 5.0 mi North 5.8 mph - N/A   Haze
12:55 PM 68.0 °F 51.8 °F 56% 30.35 in 5.0 mi WSW 4.6 mph - N/A   Haze
1:15 PM 69.8 °F 51.8 °F 53% 30.34 in 7.0 mi WSW 4.6 mph - N/A   Clear
1:55 PM 68.0 °F 51.8 °F 56% 30.32 in 7.0 mi WSW 4.6 mph - N/A   Clear
2:15 PM 69.8 °F 51.8 °F 53% 30.31 in 9.0 mi West 5.8 mph - N/A   Clear
2:35 PM 69.8 °F 51.8 °F 53% 30.31 in 8.0 mi West 4.6 mph - N/A   Clear
2:55 PM 68.0 °F 51.8 °F 56% 30.31 in 8.0 mi WSW 5.8 mph - N/A   Clear
3:15 PM 68.0 °F 51.8 °F 56% 30.31 in 8.0 mi West 5.8 mph - N/A   Clear
3:35 PM 66.2 °F 50.0 °F 56% 30.31 in 7.0 mi SW 6.9 mph - N/A   Clear
3:55 PM 66.2 °F 48.2 °F 52% 30.31 in 9.0 mi WSW 3.5 mph - N/A   Clear
4:15 PM 64.4 °F 48.2 °F 56% 30.31 in 9.0 mi WSW 3.5 mph - N/A   Clear
4:35 PM 62.6 °F 46.4 °F 55% 30.31 in 9.0 mi Calm Calm - N/A   Clear
4:55 PM 57.2 °F 41.0 °F 55% 30.31 in 7.0 mi Calm Calm - N/A   Clear
5:15 PM 53.6 °F 35.6 °F 51% 30.31 in 6.0 mi Calm Calm - N/A   Haze
5:35 PM 48.2 °F 33.8 °F 58% 30.31 in 7.0 mi Calm Calm - N/A   Clear
5:55 PM 48.2 °F 32.0 °F 54% 30.31 in 6.0 mi North - - N/A   Haze
6:15 PM 46.4 °F 32.0 °F 57% 30.32 in 7.0 mi North - - N/A   Clear
6:35 PM 44.6 °F 30.2 °F 57% 30.32 in 5.0 mi North - - N/A   Haze
6:55 PM 42.8 °F 30.2 °F 61% 30.33 in 7.0 mi North - - N/A   Clear
7:15 PM 42.8 °F 28.4 °F 57% 30.33 in 9.0 mi North - - N/A   Clear
7:35 PM 41.0 °F 26.6 °F 57% 30.33 in 8.0 mi Calm Calm - N/A   Clear
7:55 PM 39.2 °F 26.6 °F 61% 30.34 in 5.0 mi North - - N/A   Haze
8:15 PM 39.2 °F 26.6 °F 61% 30.34 in 7.0 mi Calm Calm - N/A   Clear
8:35 PM 37.4 °F 24.8 °F 60% 30.34 in 7.0 mi Calm Calm - N/A   Clear
8:55 PM 39.2 °F 26.6 °F 61% 30.34 in 5.0 mi Calm Calm - N/A   Haze
9:15 PM 37.4 °F 24.8 °F 60% 30.34 in 5.0 mi North - - N/A   Haze
9:35 PM 37.4 °F 24.8 °F 60% 30.34 in 5.0 mi Calm Calm - N/A   Haze
9:55 PM 37.4 °F 24.8 °F 60% 30.34 in 6.0 mi North - - N/A   Haze
10:15 PM 37.4 °F 24.8 °F 60% 30.34 in 7.0 mi Calm Calm - N/A   Clear
10:35 PM 37.4 °F 24.8 °F 60% 30.34 in 5.0 mi Calm Calm - N/A   Haze
10:55 PM 37.4 °F 24.8 °F 60% 30.34 in 5.0 mi Calm Calm - N/A   Haze
11:15 PM 37.4 °F 23.0 °F 56% 30.34 in 5.0 mi Calm Calm - N/A   Haze
11:35 PM 37.4 °F 23.0 °F 56% 30.33 in 4.0 mi Calm Calm - N/A   Haze
11:55 PM 37.4 °F 23.0 °F 56% 30.33 in 4.0 mi North - - N/A   Haze